createdAt,value
2019-05-06T00:01:58.890Z,1.33
2019-05-06T00:06:03.943Z,1.37
2019-05-06T00:10:24.477Z,1.60
2019-05-06T00:14:28.413Z,1.27
2019-05-06T00:18:34.232Z,1.20
2019-05-06T00:22:38.690Z,1.67
2019-05-06T00:27:04.936Z,1.20
2019-05-06T00:31:15.943Z,1.20
2019-05-06T00:35:17.650Z,1.60
2019-05-06T00:39:33.953Z,1.20
2019-05-06T00:43:38.180Z,1.30
2019-05-06T00:47:44.378Z,1.73
2019-05-06T00:51:48.782Z,1.50
2019-05-06T00:55:53.842Z,1.20
2019-05-06T00:59:58.184Z,1.67
2019-05-06T01:04:04.588Z,1.30
2019-05-06T01:08:09.063Z,1.40
2019-05-06T01:12:14.350Z,1.63
2019-05-06T01:16:20.703Z,1.73
2019-05-06T01:20:24.934Z,1.30
2019-05-06T01:24:29.164Z,1.77
2019-05-06T01:28:34.127Z,1.90
2019-05-06T01:32:38.520Z,1.47
2019-05-06T01:36:43.719Z,1.77
2019-05-06T01:41:07.090Z,1.70
2019-05-06T01:45:14.097Z,1.40
2019-05-06T01:49:18.109Z,1.93
2019-05-06T01:53:24.143Z,1.90
2019-05-06T01:57:28.427Z,1.67
2019-05-06T02:01:34.177Z,1.57
2019-05-06T02:05:38.642Z,1.70
2019-05-06T02:09:44.780Z,1.77
2019-05-06T02:13:49.172Z,1.33
2019-05-06T02:17:55.130Z,1.60
2019-05-06T02:22:21.273Z,2.13
2019-05-06T02:26:25.622Z,1.40
2019-05-06T02:30:48.788Z,2.07
2019-05-06T02:35:06.113Z,1.90
2019-05-06T02:39:10.377Z,2.00
2019-05-06T02:43:14.984Z,1.60
2019-05-06T02:47:28.161Z,1.67
2019-05-06T02:51:33.429Z,1.63
2019-05-06T02:55:38.156Z,1.77
2019-05-06T02:59:44.104Z,1.80
2019-05-06T03:03:48.318Z,1.90
2019-05-06T03:07:56.990Z,1.73
2019-05-06T03:11:58.809Z,1.77
2019-05-06T03:16:05.648Z,1.93
2019-05-06T03:20:13.227Z,1.87
2019-05-06T03:24:36.355Z,1.67
2019-05-06T03:28:43.751Z,1.70
2019-05-06T03:33:21.315Z,2.00
2019-05-06T03:36:56.072Z,1.70
2019-05-06T03:40:59.098Z,2.00
2019-05-06T03:45:09.478Z,1.80
2019-05-06T03:49:14.000Z,1.67
2019-05-06T03:53:18.664Z,2.40
2019-05-06T03:57:24.320Z,3.20
2019-05-06T04:01:29.071Z,3.43
2019-05-06T04:05:33.763Z,2.50
2019-05-06T04:09:38.018Z,2.43
2019-05-06T04:13:43.680Z,1.90
2019-05-06T04:17:57.537Z,1.73
2019-05-06T04:22:23.394Z,1.70
2019-05-06T04:26:46.152Z,1.73
2019-05-06T04:30:49.264Z,1.50
2019-05-06T04:34:53.812Z,1.90
2019-05-06T04:38:58.033Z,1.77
2019-05-06T04:43:03.512Z,1.57
2019-05-06T04:47:08.397Z,1.50
2019-05-06T04:51:13.655Z,1.60
2019-05-06T04:55:18.228Z,1.77
2019-05-06T04:59:23.292Z,1.60
2019-05-06T05:03:27.877Z,1.70
2019-05-06T05:07:33.410Z,1.70
2019-05-06T05:12:03.077Z,1.90
2019-05-06T05:16:36.010Z,1.90
2019-05-06T05:20:46.058Z,1.77
2019-05-06T05:24:46.384Z,2.10
2019-05-06T05:28:53.185Z,1.67
2019-05-06T05:32:57.269Z,1.80
2019-05-06T05:37:03.025Z,1.83
2019-05-06T05:41:07.303Z,1.90
2019-05-06T05:45:12.838Z,1.83
2019-05-06T05:49:28.774Z,1.83
2019-05-06T05:53:33.272Z,1.70
2019-05-06T05:57:37.671Z,1.77
2019-05-06T06:01:43.442Z,1.70
2019-05-06T06:05:47.840Z,1.87
2019-05-06T06:10:02.657Z,1.70
2019-05-06T06:14:26.213Z,1.77
2019-05-06T06:18:59.428Z,1.40
2019-05-06T06:23:10.228Z,1.73
2019-05-06T06:27:14.493Z,1.67
2019-05-06T06:31:35.682Z,1.83
2019-05-06T06:36:12.336Z,1.57
2019-05-06T06:40:35.898Z,1.60
2019-05-06T06:44:42.292Z,1.57
2019-05-06T06:48:46.043Z,1.67
2019-05-06T06:52:52.520Z,1.87
2019-05-06T06:57:09.191Z,1.60
2019-05-06T07:01:26.603Z,1.40
2019-05-06T07:05:39.219Z,1.90
2019-05-06T07:09:43.433Z,1.60
2019-05-06T07:13:54.712Z,1.60
2019-05-06T07:17:58.960Z,1.77
2019-05-06T07:22:06.648Z,1.50
2019-05-06T07:26:12.163Z,1.70
2019-05-06T07:30:17.244Z,1.60
2019-05-06T07:34:22.890Z,1.60
2019-05-06T07:38:27.283Z,1.53
2019-05-06T07:42:38.122Z,1.67
2019-05-06T07:46:53.578Z,1.40
2019-05-06T07:50:57.831Z,1.43
2019-05-06T07:55:02.534Z,1.50
2019-05-06T07:59:09.861Z,1.47
2019-05-06T08:03:14.255Z,1.90
2019-05-06T08:07:18.476Z,1.50
2019-05-06T08:11:25.982Z,1.50
2019-05-06T08:15:28.990Z,1.67
2019-05-06T08:19:33.743Z,1.60
2019-05-06T08:23:43.544Z,1.53
2019-05-06T08:27:49.491Z,1.27
2019-05-06T08:31:53.725Z,1.60
2019-05-06T08:36:10.598Z,1.40
2019-05-06T08:40:05.735Z,1.60
2019-05-06T08:44:10.028Z,1.30
2019-05-06T08:48:14.294Z,1.30
2019-05-06T08:52:19.357Z,1.63
2019-05-06T08:56:23.886Z,1.47
2019-05-06T09:00:28.943Z,1.77
2019-05-06T09:04:33.205Z,1.27
2019-05-06T09:08:37.431Z,1.80
2019-05-06T09:12:42.550Z,1.53
2019-05-06T09:16:50.514Z,1.43
2019-05-06T09:20:54.552Z,1.30
2019-05-06T09:24:58.757Z,1.50
2019-05-06T09:29:09.370Z,1.30
2019-05-06T09:33:15.510Z,1.47
2019-05-06T09:37:20.138Z,1.40
2019-05-06T09:41:24.411Z,1.50
2019-05-06T09:45:28.645Z,1.30
2019-05-06T09:49:34.020Z,1.70
2019-05-06T09:54:00.175Z,1.60
2019-05-06T09:58:05.071Z,1.50
2019-05-06T10:02:09.356Z,1.37
2019-05-06T10:06:13.601Z,1.30
2019-05-06T10:10:18.055Z,1.50
2019-05-06T10:14:23.402Z,1.30
2019-05-06T10:18:27.819Z,0.93
2019-05-06T10:22:32.574Z,1.30
2019-05-06T10:26:43.299Z,1.03
2019-05-06T10:30:47.563Z,1.07
2019-05-06T10:34:52.636Z,1.20
2019-05-06T10:39:06.071Z,1.10
2019-05-06T10:43:27.014Z,1.20
2019-05-06T10:47:33.043Z,1.20
2019-05-06T10:52:02.466Z,1.20
2019-05-06T10:56:28.630Z,1.60
2019-05-06T11:00:33.289Z,1.30
2019-05-06T11:04:37.638Z,1.10
2019-05-06T11:08:42.179Z,1.20
2019-05-06T11:12:46.449Z,1.53
2019-05-06T11:16:51.083Z,1.30
2019-05-06T11:20:56.239Z,1.53
2019-05-06T11:25:02.942Z,1.20
2019-05-06T11:29:12.577Z,1.37
2019-05-06T11:33:38.848Z,1.40
2019-05-06T11:37:54.336Z,1.27
2019-05-06T11:42:22.534Z,1.53
2019-05-06T11:46:05.626Z,1.50
2019-05-06T11:50:13.007Z,1.60
2019-05-06T11:54:20.344Z,1.40
2019-05-06T11:58:42.808Z,1.50
2019-05-06T12:02:48.749Z,1.40
2019-05-06T12:07:09.205Z,1.60
2019-05-06T12:10:59.211Z,2.03
2019-05-06T12:15:05.411Z,1.70
2019-05-06T12:19:09.536Z,1.60
2019-05-06T12:23:15.550Z,1.40
2019-05-06T12:27:37.686Z,1.30
2019-05-06T12:31:42.316Z,1.50
2019-05-06T12:35:47.924Z,1.60
2019-05-06T12:39:57.523Z,1.67
2019-05-06T12:44:03.100Z,1.40
2019-05-06T12:48:24.379Z,1.63
2019-05-06T12:52:28.972Z,1.60
2019-05-06T12:56:35.134Z,1.53
2019-05-06T13:00:39.410Z,1.80
2019-05-06T13:04:54.581Z,1.60
2019-05-06T13:08:58.708Z,1.67
2019-05-06T13:13:05.424Z,1.80
2019-05-06T13:17:11.991Z,1.60
2019-05-06T13:21:16.326Z,1.80
2019-05-06T13:25:22.935Z,1.50
2019-05-06T13:29:32.278Z,1.70
2019-05-06T13:33:45.117Z,1.60
2019-05-06T13:37:49.770Z,1.70
2019-05-06T13:41:53.992Z,1.57
2019-05-06T13:46:00.066Z,1.97
2019-05-06T13:50:05.074Z,1.80
2019-05-06T13:54:12.730Z,1.60
2019-05-06T13:58:15.597Z,1.60
2019-05-06T14:02:37.568Z,1.50
2019-05-06T14:06:43.223Z,1.60
2019-05-06T14:10:56.661Z,1.40
2019-05-06T14:14:53.866Z,1.63
2019-05-06T14:18:58.114Z,1.70
2019-05-06T14:23:02.435Z,1.67
2019-05-06T14:27:11.881Z,1.53
2019-05-06T14:31:25.810Z,1.57
2019-05-06T14:35:29.670Z,1.67
2019-05-06T14:39:49.995Z,1.90
2019-05-06T14:43:43.177Z,1.73
2019-05-06T14:47:47.444Z,1.70
2019-05-06T14:51:53.708Z,1.57
2019-05-06T14:55:59.645Z,1.60
2019-05-06T15:00:04.622Z,1.50
2019-05-06T15:04:08.888Z,1.63
2019-05-06T15:08:13.574Z,1.60
2019-05-06T15:12:18.325Z,2.00
2019-05-06T15:16:22.701Z,1.97
2019-05-06T15:20:26.931Z,1.93
2019-05-06T15:24:31.668Z,1.90
2019-05-06T15:28:36.259Z,2.20
2019-05-06T15:32:40.596Z,2.10
2019-05-06T15:36:57.256Z,2.37
2019-05-06T15:41:02.934Z,2.10
2019-05-06T15:45:07.479Z,1.80
2019-05-06T15:49:11.894Z,1.97
2019-05-06T15:53:16.186Z,1.67
2019-05-06T15:57:22.691Z,2.27
2019-05-06T16:01:26.500Z,1.87
2019-05-06T16:05:34.493Z,1.57
2019-05-06T16:09:38.497Z,1.93
2019-05-06T16:13:45.121Z,2.00
2019-05-06T16:17:49.254Z,1.60
2019-05-06T16:21:53.791Z,2.27
2019-05-06T16:25:58.061Z,1.90
2019-05-06T16:30:03.436Z,2.00
2019-05-06T16:34:07.778Z,1.87
2019-05-06T16:38:13.207Z,1.90
2019-05-06T16:42:30.935Z,2.20
2019-05-06T16:46:35.142Z,1.90
2019-05-06T16:50:39.489Z,2.13
2019-05-06T16:54:43.756Z,1.97
2019-05-06T16:58:52.643Z,2.50
2019-05-06T17:03:23.983Z,2.20
2019-05-06T17:07:28.863Z,1.83
2019-05-06T17:11:34.596Z,1.77
2019-05-06T17:15:39.165Z,1.47
2019-05-06T17:19:43.416Z,1.63
2019-05-06T17:23:47.652Z,1.70
2019-05-06T17:27:52.683Z,2.00
2019-05-06T17:32:13.448Z,2.00
2019-05-06T17:36:19.458Z,1.53
2019-05-06T17:40:24.140Z,1.70
2019-05-06T17:44:29.524Z,1.80
2019-05-06T17:48:42.451Z,1.80
2019-05-06T17:52:46.871Z,1.70
2019-05-06T17:56:53.927Z,1.80
2019-05-06T18:00:58.585Z,1.53
2019-05-06T18:05:05.111Z,1.70
2019-05-06T18:09:12.621Z,1.50
2019-05-06T18:13:17.789Z,1.70
2019-05-06T18:17:22.147Z,1.60
2019-05-06T18:21:27.171Z,1.40
2019-05-06T18:25:32.832Z,1.97
2019-05-06T18:29:37.142Z,1.83
2019-05-06T18:33:43.101Z,1.70
2019-05-06T18:37:48.062Z,1.80
2019-05-06T18:41:53.243Z,1.70
2019-05-06T18:45:57.881Z,2.00
2019-05-06T18:50:03.318Z,1.90
2019-05-06T18:54:08.034Z,1.67
2019-05-06T18:58:12.918Z,2.00
2019-05-06T19:02:17.817Z,2.20
2019-05-06T19:06:23.249Z,1.83
2019-05-06T19:10:29.998Z,1.73
2019-05-06T19:14:34.547Z,1.73
2019-05-06T19:18:38.880Z,1.90
2019-05-06T19:22:43.592Z,1.50
2019-05-06T19:26:48.340Z,1.80
2019-05-06T19:30:54.064Z,2.10
2019-05-06T19:34:58.971Z,2.13
2019-05-06T19:39:05.991Z,1.90
2019-05-06T19:43:12.267Z,2.07
2019-05-06T19:47:16.397Z,2.30
2019-05-06T19:51:22.489Z,1.93
2019-05-06T19:55:27.493Z,2.13
2019-05-06T19:59:33.177Z,2.03
2019-05-06T20:03:37.897Z,2.17
2019-05-06T20:07:52.212Z,2.30
2019-05-06T20:11:59.877Z,2.10
2019-05-06T20:16:05.910Z,1.87
2019-05-06T20:20:12.425Z,2.20
2019-05-06T20:24:16.790Z,2.30
2019-05-06T20:28:22.722Z,2.40
2019-05-06T20:32:27.474Z,2.33
2019-05-06T20:36:33.219Z,2.47
2019-05-06T20:40:38.510Z,2.10
2019-05-06T20:44:43.587Z,2.20
2019-05-06T20:48:47.915Z,2.30
2019-05-06T20:52:52.230Z,2.60
2019-05-06T20:56:56.541Z,2.50
2019-05-06T21:01:02.992Z,2.30
2019-05-06T21:05:10.883Z,2.47
2019-05-06T21:09:15.059Z,2.67
2019-05-06T21:13:29.647Z,2.20
2019-05-06T21:17:25.719Z,2.30
2019-05-06T21:21:31.926Z,2.60
2019-05-06T21:25:36.298Z,2.57
2019-05-06T21:29:42.046Z,2.47
2019-05-06T21:33:46.770Z,2.20
2019-05-06T21:37:52.947Z,2.73
2019-05-06T21:41:57.266Z,2.63
2019-05-06T21:46:02.401Z,2.40
2019-05-06T21:50:07.010Z,2.70
2019-05-06T21:54:12.528Z,2.53
2019-05-06T21:58:17.102Z,2.60
2019-05-06T22:02:22.996Z,2.20
2019-05-06T22:06:27.393Z,2.20
2019-05-06T22:10:32.509Z,2.50
2019-05-06T22:14:37.007Z,2.20
2019-05-06T22:18:43.313Z,2.20
2019-05-06T22:22:47.430Z,2.30
2019-05-06T22:26:52.088Z,2.60
2019-05-06T22:30:56.562Z,2.40
2019-05-06T22:35:02.361Z,2.17
2019-05-06T22:39:07.666Z,3.13
2019-05-06T22:43:12.355Z,2.50
2019-05-06T22:47:16.729Z,2.30
2019-05-06T22:51:22.906Z,2.47
2019-05-06T22:55:27.475Z,2.60
2019-05-06T22:59:32.992Z,2.57
2019-05-06T23:03:37.932Z,2.33
2019-05-06T23:07:42.385Z,2.47
2019-05-06T23:11:47.059Z,2.90
2019-05-06T23:15:52.378Z,2.67
2019-05-06T23:19:56.735Z,2.27
2019-05-06T23:24:02.142Z,2.87
2019-05-06T23:28:06.475Z,2.50
2019-05-06T23:32:13.712Z,2.50
2019-05-06T23:36:16.693Z,2.67
2019-05-06T23:40:56.983Z,2.40
2019-05-06T23:45:37.009Z,2.73
2019-05-06T23:50:17.064Z,2.73
2019-05-06T23:54:57.185Z,2.30
2019-05-06T23:59:01.393Z,2.47
